Shoyo Maru — JLOJ — position and weather

sailwx.info

Track history (hours):
 
Tides and Currents Weather Stations Pressure Air Temp Water Temp Dewpoint Dewpoint Depression Visibility Wind Speed Wind Dir Waves Ship Positions

Oceanographic research ship Shoyo Maru (Japan)

Detailed information on ship capabilities available from University of Delaware's Ocean Information Center.

Last reported at 2015-Jul-31 00:31 UTC. Time now 2015-Jul-31 01:06 UTC.
Position N 35°39' E 139°47'.

Length 87.6 m; beam 14 m.

Type: Other ship. MMSI: 431465000.

Date/timePositionNaut miles runAvg speedWind from/ knotsBaromVisibWave heightAir tempDewpointWater temp
2015-Jul-31 00:31N 35°39' E 139°47'2 2.4
2015-Jul-30 23:34N 35°37' E 139°46'5 5.4
2015-Jul-30 22:34N 35°34' E 139°52'0 0.0
2015-Jul-30 21:22N 35°34' E 139°52'0 0.0
2015-Jul-30 20:34N 35°34' E 139°52'0 0.0
2015-Jul-30 19:28N 35°34' E 139°52'0 0.0
2015-Jul-30 18:31N 35°34' E 139°52'0 0.0
2015-Jul-30 17:31N 35°34' E 139°52'0 0.0
2015-Jul-30 16:31N 35°34' E 139°52'0 0.0
2015-Jul-30 15:31N 35°34' E 139°52'0 0.0
2015-Jul-30 14:34N 35°34' E 139°52'0 0.0
2015-Jul-30 13:31N 35°34' E 139°52'0 0.0
2015-Jul-30 12:34N 35°34' E 139°52'0 0.0
2015-Jul-30 11:34N 35°34' E 139°52'0 0.0
2015-Jul-30 10:31N 35°34' E 139°52'0 0.0
2015-Jul-30 09:31N 35°34' E 139°52'0 0.0
2015-Jul-30 08:31N 35°34' E 139°52'0 0.0
2015-Jul-30 07:28N 35°34' E 139°52'1 1.0
2015-Jul-30 06:33N 35°33' E 139°52'1111.2
2015-Jul-30 05:33N 35°23' E 139°46'1211.4
2015-Jul-30 04:33N 35°12' E 139°47'1211.9
2015-Jul-30 03:33N 35°00' E 139°44'18 3.4
2015-Jul-29 22:17N 34°45' E 139°55'7 8.9
2015-Jul-29 21:28N 34°49' E 140°03'1111.6
2015-Jul-29 20:33N 34°55' E 140°14'1211.7
2015-Jul-29 19:33N 35°00' E 140°26'1312.5
2015-Jul-29 18:32N 35°05' E 140°41'1212.2
2015-Jul-29 17:33N 35°09' E 140°54'1211.5
2015-Jul-29 16:33N 35°13' E 141°08'1110.8
2015-Jul-29 15:33N 35°17' E 141°20'  
Track history (hours):
 
Tides and Currents Weather Stations Pressure Air Temp Water Temp Dewpoint Dewpoint Depression Visibility Wind Speed Wind Dir Waves Ship Positions

Oceanographic research ship Shoyo Maru (Japan)

Detailed information on ship capabilities available from University of Delaware's Ocean Information Center.

Last reported at 2015-Jul-31 00:31 UTC. Time now 2015-Jul-31 01:06 UTC.
Position N 35°39' E 139°47'.

Length 87.6 m; beam 14 m.

Type: Other ship. MMSI: 431465000.

Date/timePositionNaut miles runAvg speedWind from/ knotsBaromVisibWave heightAir tempDewpointWater temp
2015-Jul-31 00:31N 35°39' E 139°47'2 2.4
2015-Jul-30 23:34N 35°37' E 139°46'5 5.4
2015-Jul-30 22:34N 35°34' E 139°52'0 0.0
2015-Jul-30 21:22N 35°34' E 139°52'0 0.0
2015-Jul-30 20:34N 35°34' E 139°52'0 0.0
2015-Jul-30 19:28N 35°34' E 139°52'0 0.0
2015-Jul-30 18:31N 35°34' E 139°52'0 0.0
2015-Jul-30 17:31N 35°34' E 139°52'0 0.0
2015-Jul-30 16:31N 35°34' E 139°52'0 0.0
2015-Jul-30 15:31N 35°34' E 139°52'0 0.0
2015-Jul-30 14:34N 35°34' E 139°52'0 0.0
2015-Jul-30 13:31N 35°34' E 139°52'0 0.0
2015-Jul-30 12:34N 35°34' E 139°52'0 0.0
2015-Jul-30 11:34N 35°34' E 139°52'0 0.0
2015-Jul-30 10:31N 35°34' E 139°52'0 0.0
2015-Jul-30 09:31N 35°34' E 139°52'0 0.0
2015-Jul-30 08:31N 35°34' E 139°52'0 0.0
2015-Jul-30 07:28N 35°34' E 139°52'1 1.0
2015-Jul-30 06:33N 35°33' E 139°52'1111.2
2015-Jul-30 05:33N 35°23' E 139°46'1211.4
2015-Jul-30 04:33N 35°12' E 139°47'1211.9
2015-Jul-30 03:33N 35°00' E 139°44'18 3.4
2015-Jul-29 22:17N 34°45' E 139°55'7 8.9
2015-Jul-29 21:28N 34°49' E 140°03'1111.6
2015-Jul-29 20:33N 34°55' E 140°14'1211.7
2015-Jul-29 19:33N 35°00' E 140°26'1312.5
2015-Jul-29 18:32N 35°05' E 140°41'1212.2
2015-Jul-29 17:33N 35°09' E 140°54'1211.5
2015-Jul-29 16:33N 35°13' E 141°08'1110.8
2015-Jul-29 15:33N 35°17' E 141°20'  

Dump ship's entire track history